Time;durP1;ratioP1;P1;durP2;ratioP2;P2;SDS_P1;SDS_P2;PMS_P1;PMS_P2;Temp;Humidity;BMP_temperature;BMP_pressure;BME280_temperature;BME280_humidity;BME280_pressure;Samples;Min_cycle;Max_cycle;Signal;HPM_P1;HPM_P2
2023/07/10 00:01:04;;;;;;;0.60;0.60;;;;;;;12.09;100.00;100840.88;5019939;28;20521;-76
2023/07/10 00:03:30;;;;;;;0.73;0.73;;;;;;;12.09;100.00;100836.34;5020080;28;20071;-77
2023/07/10 00:05:57;;;;;;;1.38;0.98;;;;;;;12.12;100.00;100831.59;5035887;28;20468;-78
2023/07/10 00:08:22;;;;;;;1.23;1.15;;;;;;;12.10;100.00;100837.19;5035487;28;20031;-79
2023/07/10 00:10:49;;;;;;;2.55;1.30;;;;;;;11.89;100.00;100800.16;5035626;28;20112;-78
2023/07/10 00:13:14;;;;;;;2.00;1.02;;;;;;;12.08;100.00;100826.56;5036037;28;20079;-79
2023/07/10 00:15:40;;;;;;;1.77;1.20;;;;;;;12.07;100.00;100822.22;5019694;28;20053;-79
2023/07/10 00:18:15;;;;;;;0.82;0.82;;;;;;;12.08;100.00;100823.03;5019414;28;20032;-78
2023/07/10 00:20:41;;;;;;;0.88;0.88;;;;;;;12.07;100.00;100819.50;5052629;28;20039;-78
2023/07/10 00:23:07;;;;;;;0.68;0.68;;;;;;;12.06;100.00;100820.50;5052418;28;20459;-78
2023/07/10 00:25:33;;;;;;;1.08;1.08;;;;;;;12.03;100.00;100810.09;5035687;28;20033;-78
2023/07/10 00:27:58;;;;;;;0.85;0.85;;;;;;;12.03;100.00;100817.38;5035642;28;20033;-78
2023/07/10 00:30:25;;;;;;;0.95;0.95;;;;;;;11.98;100.00;100806.28;5036102;28;20506;-78
2023/07/10 00:32:53;;;;;;;0.68;0.68;;;;;;;12.02;100.00;100816.53;5036053;28;20074;-80
2023/07/10 00:35:24;;;;;;;0.70;0.70;;;;;;;12.01;100.00;100814.00;5019620;28;20025;-78
2023/07/10 00:38:05;;;;;;;0.98;0.98;;;;;;;12.04;100.00;100817.19;5035859;28;20028;-78
2023/07/10 00:40:33;;;;;;;0.73;0.73;;;;;;;12.05;100.00;100818.03;5052579;28;20041;-78
2023/07/10 00:43:10;;;;;;;0.77;0.77;;;;;;;11.98;100.00;100793.66;5035955;28;20064;-77
2023/07/10 00:45:36;;;;;;;1.65;1.00;;;;;;;12.09;100.00;100805.84;5035847;28;20037;-78
2023/07/10 00:48:25;;;;;;;1.02;1.02;;;;;;;12.11;100.00;100809.19;5036011;28;20360;-78
2023/07/10 00:50:54;;;;;;;0.82;0.82;;;;;;;12.15;100.00;100802.41;5036266;28;20103;-78
2023/07/10 00:53:28;;;;;;;0.88;0.88;;;;;;;12.07;100.00;100789.03;5047638;28;20033;-80
2023/07/10 00:55:54;;;;;;;;;;;;;;;12.17;100.00;100800.38;5020276;28;20032;-78
2023/07/10 00:58:25;;;;;;;1.30;1.30;;;;;;;12.08;100.00;100782.59;5068892;28;19916;-78
2023/07/10 01:01:07;;;;;;;1.05;1.05;;;;;;;12.18;100.00;100795.81;5035881;28;20072;-77
2023/07/10 01:03:34;;;;;;;1.00;1.00;;;;;;;12.20;100.00;100794.63;5052476;28;20041;-78
2023/07/10 01:06:15;;;;;;;1.15;1.02;;;;;;;12.25;100.00;100791.34;5035699;28;20029;-78
2023/07/10 01:08:51;;;;;;;0.85;0.85;;;;;;;12.22;100.00;100781.75;5052427;28;20036;-78
2023/07/10 01:11:17;;;;;;;1.02;1.02;;;;;;;12.21;100.00;100779.28;5019368;28;20037;-79
2023/07/10 01:13:44;;;;;;;0.85;0.85;;;;;;;12.21;100.00;100768.50;5052373;28;20131;-77
2023/07/10 01:16:10;;;;;;;0.60;0.60;;;;;;;12.34;100.00;100773.22;5018926;28;20044;-77
2023/07/10 01:18:37;;;;;;;0.80;0.70;;;;;;;12.23;100.00;100745.72;5051881;28;20033;-78
2023/07/10 01:21:24;;;;;;;0.60;0.60;;;;;;;12.34;100.00;100751.66;5051758;28;20096;-78
2023/07/10 01:23:50;;;;;;;0.63;0.63;;;;;;;12.41;100.00;100758.81;5035125;28;20059;-79
2023/07/10 01:26:16;;;;;;;0.60;0.60;;;;;;;12.43;100.00;100764.84;5051809;28;20025;-77
2023/07/10 01:28:42;;;;;;;0.50;0.50;;;;;;;12.43;100.00;100750.53;5019284;28;20454;-77
2023/07/10 01:31:10;;;;;;;0.98;0.82;;;;;;;12.37;100.00;100738.63;5035209;28;20112;-78
2023/07/10 01:33:40;;;;;;;0.73;0.73;;;;;;;12.39;100.00;100752.78;5035364;28;20044;-77
2023/07/10 01:36:06;;;;;;;0.60;0.60;;;;;;;12.37;100.00;100748.59;5019187;28;20033;-77
2023/07/10 01:38:38;;;;;;;0.52;0.52;;;;;;;12.37;100.00;100745.88;5020253;28;20073;-77
2023/07/10 01:41:13;;;;;;;0.73;0.73;;;;;;;12.35;100.00;100737.97;5038958;28;20111;-76
2023/07/10 01:43:38;;;;;;;0.77;0.77;;;;;;;12.32;100.00;100741.88;5022875;28;20060;-77
2023/07/10 01:46:17;;;;;;;0.95;0.95;;;;;;;12.27;100.00;100730.00;5038778;28;20087;-77
2023/07/10 01:48:42;;;;;;;1.20;1.20;;;;;;;12.32;100.00;100732.97;5039461;28;20033;-77
2023/07/10 01:51:08;;;;;;;1.38;1.38;;;;;;;12.34;100.00;100744.41;5038827;28;20032;-77
2023/07/10 01:53:34;;;;;;;0.77;0.77;;;;;;;12.35;100.00;100743.38;5039174;28;20039;-77
2023/07/10 01:56:00;;;;;;;0.90;0.90;;;;;;;12.32;100.00;100722.19;5038825;28;20492;-77
2023/07/10 01:58:25;;;;;;;1.33;1.33;;;;;;;12.36;100.00;100734.28;5022343;28;20021;-77
2023/07/10 02:00:51;;;;;;;1.50;1.50;;;;;;;12.31;100.00;100718.66;5038853;28;20029;-79
2023/07/10 02:03:17;;;;;;;1.27;1.27;;;;;;;12.38;100.00;100726.81;5022618;28;20029;-77
2023/07/10 02:05:42;;;;;;;0.50;0.50;;;;;;;12.34;100.00;100717.44;5022365;28;20033;-77
2023/07/10 02:08:08;;;;;;;0.32;0.32;;;;;;;12.34;100.00;100709.34;5021925;28;20383;-77
2023/07/10 02:10:33;;;;;;;0.93;0.93;;;;;;;12.36;100.00;100703.75;5038957;28;20029;-77
2023/07/10 02:12:59;;;;;;;4.82;4.53;;;;;;;12.41;100.00;100709.41;5021856;28;20391;-77
2023/07/10 02:15:25;;;;;;;3.17;3.03;;;;;;;12.37;100.00;100698.19;5022469;28;20025;-77
2023/07/10 02:17:51;;;;;;;2.05;1.95;;;;;;;12.38;100.00;100696.31;5038315;28;20032;-78
2023/07/10 02:20:17;;;;;;;3.35;3.25;;;;;;;12.37;100.00;100694.66;5022293;28;20033;-79
2023/07/10 02:22:43;;;;;;;4.57;4.20;;;;;;;12.34;100.00;100695.88;5055078;28;20032;-79
2023/07/10 02:25:08;;;;;;;0.40;0.40;;;;;;;12.26;100.00;100682.50;5038457;28;20021;-77
2023/07/10 02:27:34;;;;;;;3.22;3.05;;;;;;;12.27;100.00;100679.59;5038270;28;20458;-77
2023/07/10 02:30:03;;;;;;;1.58;1.55;;;;;;;12.22;100.00;100665.84;5021392;28;20028;-77
2023/07/10 02:32:34;;;;;;;2.53;2.42;;;;;;;12.28;100.00;100675.91;5022391;28;20064;-76
2023/07/10 02:35:00;;;;;;;1.27;1.27;;;;;;;12.25;100.00;100672.72;5066672;28;20396;-77
2023/07/10 02:37:25;;;;;;;2.58;2.47;;;;;;;12.12;100.00;100646.47;5038419;28;20071;-77
2023/07/10 02:39:51;;;;;;;2.58;2.47;;;;;;;12.28;100.00;100673.19;5038113;28;20463;-76
2023/07/10 02:42:17;;;;;;;1.17;1.17;;;;;;;12.32;100.00;100674.47;5038212;28;20025;-78
2023/07/10 02:44:42;;;;;;;1.55;1.55;;;;;;;12.26;100.00;100659.06;5021690;28;20037;-81
2023/07/10 02:47:08;;;;;;;1.42;1.42;;;;;;;12.32;100.00;100661.00;5021522;28;20130;-79
2023/07/10 02:49:34;;;;;;;0.30;0.30;;;;;;;12.35;100.00;100656.25;5054244;28;20052;-77
2023/07/10 02:51:59;;;;;;;0.30;0.30;;;;;;;12.35;100.00;100651.69;5054700;28;20360;-80
2023/07/10 02:54:25;;;;;;;0.35;0.35;;;;;;;12.36;100.00;100653.38;5037617;28;20029;-77
2023/07/10 02:56:51;;;;;;;1.15;1.15;;;;;;;12.39;100.00;100657.56;5021436;28;20048;-79
2023/07/10 02:59:17;;;;;;;0.47;0.40;;;;;;;12.37;100.00;100657.75;5037011;28;20048;-79
2023/07/10 03:01:59;;;;;;;0.40;0.40;;;;;;;12.11;100.00;100617.81;5021189;28;20086;-78
2023/07/10 03:04:26;;;;;;;0.30;0.30;;;;;;;12.26;100.00;100623.19;5038518;28;20095;-77
2023/07/10 03:06:52;;;;;;;0.30;0.30;;;;;;;12.34;100.00;100630.34;5053977;28;20096;-77
2023/07/10 03:09:18;;;;;;;0.20;0.20;;;;;;;12.38;100.00;100631.59;5021286;28;20053;-78
2023/07/10 03:11:43;;;;;;;0.30;0.30;;;;;;;12.44;100.00;100638.94;5037744;28;20131;-78
2023/07/10 03:14:12;;;;;;;0.40;0.40;;;;;;;12.44;100.00;100622.78;5021313;28;20037;-77
2023/07/10 03:16:37;;;;;;;0.50;0.38;;;;;;;12.45;100.00;100627.13;5037013;28;20029;-78
2023/07/10 03:19:03;;;;;;;0.50;0.50;;;;;;;12.47;100.00;100625.09;5037492;28;20039;-77
2023/07/10 03:21:28;;;;;;;0.20;0.20;;;;;;;12.52;100.00;100630.75;5020678;28;20037;-77
2023/07/10 03:23:57;;;;;;;0.30;0.30;;;;;;;12.56;100.00;100636.56;5021000;28;20098;-77
2023/07/10 03:26:22;;;;;;;0.80;0.50;;;;;;;12.49;100.00;100614.91;5037891;28;20087;-79
2023/07/10 03:29:07;;;;;;;1.20;0.50;;;;;;;12.54;100.00;100616.03;5053804;28;20036;-78
2023/07/10 03:31:32;;;;;;;0.30;0.30;;;;;;;12.54;100.00;100626.81;5021013;28;20091;-78
2023/07/10 03:33:58;;;;;;;0.30;0.30;;;;;;;12.57;100.00;100624.75;5054051;28;20025;-80
2023/07/10 03:36:26;;;;;;;1.23;0.50;;;;;;;12.55;100.00;100606.06;5036981;28;20494;-78
2023/07/10 03:38:52;;;;;;;1.27;0.70;;;;;;;12.61;100.00;100605.28;5053484;28;20028;-78
2023/07/10 03:41:17;;;;;;;0.30;0.30;;;;;;;12.60;100.00;100611.72;5020911;28;20041;-77
2023/07/10 03:43:43;;;;;;;0.40;0.40;;;;;;;12.60;100.00;100605.50;5037257;28;20087;-78
2023/07/10 03:46:09;;;;;;;0.35;0.30;;;;;;;12.57;100.00;100601.34;5020571;28;20486;-78
2023/07/10 03:48:35;;;;;;;0.30;0.30;;;;;;;12.59;100.00;100601.94;5053314;28;20098;-78
2023/07/10 03:51:01;;;;;;;1.80;0.65;;;;;;;12.61;100.00;100591.81;5036905;28;20533;-79
2023/07/10 03:53:30;;;;;;;0.85;0.43;;;;;;;12.59;100.00;100593.84;5053162;28;20104;-79
2023/07/10 03:55:56;;;;;;;0.20;0.20;;;;;;;12.61;100.00;100589.13;5036109;28;20491;-80
2023/07/10 03:58:28;;;;;;;0.25;0.25;;;;;;;12.64;100.00;100596.81;5036894;28;20025;-79
2023/07/10 04:00:59;;;;;;;0.68;0.40;;;;;;;12.65;100.00;100593.09;5020405;28;20391;-79
2023/07/10 04:03:27;;;;;;;0.30;0.30;;;;;;;12.65;100.00;100593.09;5036416;28;20407;-79
2023/07/10 04:06:00;;;;;;;0.32;0.30;;;;;;;12.67;100.00;100593.72;5053156;28;20041;-79
2023/07/10 04:08:28;;;;;;;1.30;0.50;;;;;;;12.48;100.00;100551.22;5036316;28;20032;-81
2023/07/10 04:10:57;;;;;;;2.08;0.65;;;;;;;12.56;100.00;100572.66;5052800;28;20471;-77
2023/07/10 04:13:32;;;;;;;0.30;0.30;;;;;;;12.63;100.00;100586.22;5037510;28;20025;-79
2023/07/10 04:16:07;;;;;;;0.20;0.20;;;;;;;12.56;100.00;100569.97;5020437;28;20029;-78
2023/07/10 04:18:40;;;;;;;1.88;0.70;;;;;;;12.61;100.00;100581.03;5019474;28;20033;-80
2023/07/10 04:21:10;;;;;;;0.30;0.30;;;;;;;12.56;100.00;100578.06;5036350;28;20048;-78
2023/07/10 04:23:36;;;;;;;0.30;0.30;;;;;;;12.52;100.00;100577.63;5019573;28;20052;-78
2023/07/10 04:26:04;;;;;;;0.30;0.30;;;;;;;12.55;100.00;100571.00;5036611;28;20032;-78
2023/07/10 04:28:32;;;;;;;1.15;0.50;;;;;;;12.51;100.00;100565.16;5036734;28;20028;-78
2023/07/10 04:31:00;;;;;;;0.20;0.20;;;;;;;12.47;100.00;100560.38;5052376;28;20083;-78
2023/07/10 04:33:28;;;;;;;0.73;0.40;;;;;;;12.53;100.00;100573.91;5037053;28;20090;-79
2023/07/10 04:35:57;;;;;;;0.30;0.30;;;;;;;12.52;100.00;100568.72;5036152;28;20033;-79
2023/07/10 04:38:27;;;;;;;1.65;0.60;;;;;;;12.55;100.00;100573.72;5035675;28;20691;-77
2023/07/10 04:40:57;;;;;;;1.77;0.65;;;;;;;12.55;100.00;100565.63;5019633;28;20550;-77
2023/07/10 04:43:24;;;;;;;0.43;0.38;;;;;;;12.51;100.00;100556.22;5019593;28;20033;-78
2023/07/10 04:45:53;;;;;;;0.32;0.30;;;;;;;12.56;100.00;100564.59;5052030;28;20471;-79
2023/07/10 04:48:18;;;;;;;2.10;0.68;;;;;;;12.55;100.00;100562.94;5019508;28;20032;-77
2023/07/10 04:50:49;;;;;;;0.35;0.30;;;;;;;12.60;100.00;100557.78;5035477;28;20033;-77
2023/07/10 04:53:15;;;;;;;0.28;0.22;;;;;;;12.61;100.00;100556.75;5019494;28;20458;-78
2023/07/10 04:55:42;;;;;;;0.40;0.30;;;;;;;12.59;100.00;100545.31;5035583;28;20088;-78
2023/07/10 04:58:08;;;;;;;0.30;0.30;;;;;;;12.68;100.00;100537.94;5052242;28;20090;-77
2023/07/10 05:00:34;;;;;;;0.30;0.30;;;;;;;12.74;100.00;100556.84;5035776;28;20499;-77
2023/07/10 05:03:00;;;;;;;0.30;0.30;;;;;;;12.79;100.00;100550.88;5035469;28;20029;-77
2023/07/10 05:05:26;;;;;;;0.30;0.30;;;;;;;12.67;100.00;100512.78;5019306;28;20072;-77
2023/07/10 05:07:52;;;;;;;0.38;0.30;;;;;;;12.83;100.00;100537.81;5051870;28;20460;-79
2023/07/10 05:10:17;;;;;;;0.80;0.43;;;;;;;12.95;100.00;100541.66;5019056;28;20029;-78
2023/07/10 05:12:43;;;;;;;0.52;0.40;;;;;;;12.97;100.00;100536.91;5037443;28;20040;-79
2023/07/10 05:15:09;;;;;;;0.43;0.40;;;;;;;13.05;100.00;100535.94;5055971;28;20033;-77
2023/07/10 05:17:35;;;;;;;0.38;0.32;;;;;;;13.01;100.00;100532.78;5055023;28;20037;-77
2023/07/10 05:20:04;;;;;;;0.20;0.20;;;;;;;13.08;100.00;100527.44;5023036;28;20045;-79
2023/07/10 05:22:30;;;;;;;0.47;0.30;;;;;;;13.18;100.00;100547.63;5056000;28;20100;-78
2023/07/10 05:24:55;;;;;;;0.60;0.40;;;;;;;13.15;100.00;100530.97;5039560;28;20039;-79
2023/07/10 05:27:22;;;;;;;0.30;0.30;;;;;;;13.27;100.00;100552.91;5055721;28;20472;-81
2023/07/10 05:29:49;;;;;;;0.30;0.30;;;;;;;13.29;100.00;100543.59;5022805;28;20130;-79
2023/07/10 05:32:15;;;;;;;0.20;0.20;;;;;;;13.32;100.00;100542.34;5022961;28;20119;-78
2023/07/10 05:34:42;;;;;;;0.30;0.30;;;;;;;13.39;100.00;100554.03;5055793;28;20029;-82
2023/07/10 05:37:10;;;;;;;0.70;0.40;;;;;;;13.39;100.00;100540.53;5022619;28;20025;-83
2023/07/10 05:39:40;;;;;;;0.30;0.30;;;;;;;13.34;100.00;100535.72;5023339;28;20125;-81
2023/07/10 05:42:08;;;;;;;1.25;0.52;;;;;;;13.34;100.00;100541.13;5039540;28;20033;-81
2023/07/10 05:44:35;;;;;;;1.08;0.43;;;;;;;13.16;100.00;100508.38;5055225;28;20056;-81
2023/07/10 05:47:03;;;;;;;0.95;0.50;;;;;;;13.28;100.00;100527.56;5022579;28;20035;-83
2023/07/10 05:49:36;;;;;;;0.30;0.30;;;;;;;13.28;100.00;100519.47;5022637;28;20025;-81
2023/07/10 05:52:03;;;;;;;1.45;0.50;;;;;;;13.24;100.00;100529.81;5056068;28;20029;-82
2023/07/10 05:54:30;;;;;;;2.05;0.60;;;;;;;13.25;100.00;100533.34;5055553;28;20041;-81
2023/07/10 05:56:59;;;;;;;0.30;0.30;;;;;;;13.14;100.00;100516.66;5022900;28;20080;-81
2023/07/10 05:59:55;;;;;;;0.25;0.25;;;;;;;13.29;100.00;100523.84;5055226;28;20029;-82
2023/07/10 06:02:29;;;;;;;0.30;0.30;;;;;;;13.39;100.00;100529.72;5040004;28;20425;-80
2023/07/10 06:04:56;;;;;;;0.52;0.40;;;;;;;13.51;100.00;100524.56;5038826;28;20115;-81
2023/07/10 06:07:55;;;;;;;1.10;0.47;;;;;;;13.64;100.00;100522.75;5022760;28;20047;-81
2023/07/10 06:10:30;;;;;;;0.30;0.30;;;;;;;13.57;100.00;100467.84;5040059;28;20041;-80
2023/07/10 06:12:56;;;;;;;0.38;0.38;;;;;;;14.03;100.00;100507.72;5038314;28;20045;-82
2023/07/10 06:15:23;;;;;;;3.22;0.95;;;;;;;14.19;100.00;100509.19;5038824;28;20040;-81
2023/07/10 06:17:49;;;;;;;0.47;0.40;;;;;;;14.32;100.00;100507.56;5055962;28;20033;-81
2023/07/10 06:20:21;;;;;;;0.70;0.43;;;;;;;14.42;100.00;100498.00;5022060;28;20467;-80
2023/07/10 06:22:57;;;;;;;0.30;0.30;;;;;;;14.36;100.00;100462.81;5055028;28;20029;-79
2023/07/10 06:25:27;;;;;;;0.77;0.47;;;;;;;14.67;100.00;100500.94;5038241;28;20033;-81
2023/07/10 06:28:01;;;;;;;0.77;0.50;;;;;;;14.76;100.00;100500.72;5022802;28;20049;-81
2023/07/10 06:30:28;;;;;;;0.47;0.40;;;;;;;14.82;100.00;100489.91;5054917;28;20068;-82
2023/07/10 06:32:55;;;;;;;1.17;0.47;;;;;;;14.80;100.00;100485.72;5055492;28;20472;-84
2023/07/10 06:35:25;;;;;;;0.82;0.45;;;;;;;14.94;100.00;100490.06;5037765;28;20386;-79
2023/07/10 06:38:01;;;;;;;1.50;0.57;;;;;;;15.04;100.00;100482.34;5054203;28;20125;-78
2023/07/10 06:40:31;;;;;;;1.10;0.50;;;;;;;15.03;100.00;100494.22;5055477;28;20426;-78
2023/07/10 06:43:02;;;;;;;1.30;0.47;;;;;;;15.05;100.00;100491.28;5054442;28;20470;-79
2023/07/10 06:45:28;;;;;;;0.35;0.35;;;;;;;15.19;100.00;100506.50;5022085;28;20033;-78
2023/07/10 06:47:54;;;;;;;1.27;0.60;;;;;;;15.37;100.00;100508.50;5054668;28;20037;-79
2023/07/10 06:50:19;;;;;;;0.50;0.35;;;;;;;15.43;100.00;100504.94;5038107;28;20029;-79
2023/07/10 06:52:45;;;;;;;1.52;0.68;;;;;;;15.48;100.00;100499.72;5021068;28;20041;-81
2023/07/10 06:55:16;;;;;;;0.57;0.40;;;;;;;15.42;100.00;100484.31;5054081;28;20029;-80
2023/07/10 06:57:44;;;;;;;0.57;0.40;;;;;;;15.23;100.00;100458.94;5054292;28;20040;-78
2023/07/10 07:00:14;;;;;;;1.38;0.52;;;;;;;15.47;100.00;100494.50;5022141;28;20029;-82
2023/07/10 07:02:44;;;;;;;0.63;0.50;;;;;;;15.51;100.00;100495.75;5037315;28;20029;-77
2023/07/10 07:05:12;;;;;;;0.30;0.30;;;;;;;15.48;100.00;100498.88;5021072;28;20025;-80
2023/07/10 07:07:46;;;;;;;0.30;0.30;;;;;;;15.45;100.00;100502.00;5053849;28;20131;-79
2023/07/10 07:10:16;;;;;;;1.33;0.70;;;;;;;15.47;100.00;100494.50;5037260;28;20398;-80
2023/07/10 07:12:50;;;;;;;0.65;0.47;;;;;;;15.60;100.00;100503.41;5020443;28;20033;-80
2023/07/10 07:15:29;;;;;;;0.40;0.40;;;;;;;15.63;100.00;100482.34;5037697;28;20118;-78
2023/07/10 07:17:55;;;;;;;0.50;0.50;;;;;;;15.60;100.00;100472.78;5053727;28;20029;-78
2023/07/10 07:20:20;;;;;;;0.43;0.43;;;;;;;15.71;100.00;100492.97;5021158;28;20033;-77
2023/07/10 07:22:47;;;;;;;0.40;0.40;;;;;;;15.71;100.00;100496.50;5053571;28;20037;-77
2023/07/10 07:25:19;;;;;;;0.45;0.40;;;;;;;15.73;100.00;100497.13;5020616;28;20033;-77
2023/07/10 07:28:03;;;;;;;0.40;0.38;;;;;;;15.75;100.00;100486.09;5053924;28;20040;-78
2023/07/10 07:31:06;;;;;;;1.50;0.63;;;;;;;15.73;100.00;100472.72;5036374;28;20044;-80
2023/07/10 07:33:46;;;;;;;0.30;0.30;;;;;;;15.96;100.00;100487.63;5037333;28;20025;-77
2023/07/10 07:36:12;;;;;;;0.35;0.35;;;;;;;15.87;100.00;100456.38;5019280;28;20037;-78
2023/07/10 07:38:39;;;;;;;1.50;0.68;;;;;;;16.32;100.00;100488.84;5036746;28;20384;-80
2023/07/10 07:41:08;;;;;;;0.30;0.30;;;;;;;16.47;100.00;100489.34;5053408;28;20103;-80
2023/07/10 07:43:35;;;;;;;0.40;0.40;;;;;;;16.66;100.00;100487.53;5020511;28;20029;-78
2023/07/10 07:46:02;;;;;;;0.50;0.50;;;;;;;16.94;100.00;100478.94;5052335;28;20111;-77
2023/07/10 07:48:27;;;;;;;0.57;0.47;;;;;;;17.28;100.00;100472.09;5020710;28;20047;-79
2023/07/10 07:50:55;;;;;;;1.48;0.60;;;;;;;17.82;100.00;100485.84;5020139;28;20037;-80
2023/07/10 07:53:20;;;;;;;1.48;0.73;;;;;;;18.32;100.00;100484.72;5052661;28;20033;-82
2023/07/10 07:55:48;;;;;;;1.10;0.60;;;;;;;18.74;100.00;100476.47;5020179;28;20446;-83
2023/07/10 07:58:13;;;;;;;0.45;0.40;;;;;;;18.89;100.00;100474.97;5036403;28;20033;-81
2023/07/10 08:00:39;;;;;;;1.05;0.50;;;;;;;19.01;100.00;100482.28;5036562;28;20025;-82
2023/07/10 08:03:14;;;;;;;0.38;0.30;;;;;;;19.20;100.00;100483.81;5036431;28;20033;-84
2023/07/10 08:05:41;;;;;;;0.65;0.43;;;;;;;19.40;100.00;100491.59;5020571;28;20446;-83
2023/07/10 08:08:08;;;;;;;0.45;0.45;;;;;;;19.53;100.00;100479.59;5036722;28;20044;-83
2023/07/10 08:10:35;;;;;;;0.70;0.70;;;;;;;20.98;100.00;100479.94;5019922;28;20036;-82
2023/07/10 08:13:04;;;;;;;0.57;0.43;;;;;;;21.24;100.00;100470.19;5019967;28;20044;-82
2023/07/10 08:15:30;;;;;;;0.55;0.40;;;;;;;20.81;100.00;100484.63;5036398;28;20064;-82
2023/07/10 08:17:56;;;;;;;0.35;0.35;;;;;;;20.13;100.00;100481.84;5019606;28;20044;-82
2023/07/10 08:20:22;;;;;;;0.40;0.40;;;;;;;19.83;100.00;100484.84;5052896;28;20033;-82
2023/07/10 08:22:48;;;;;;;1.50;0.60;;;;;;;20.15;100.00;100478.88;5035627;28;20360;-79
2023/07/10 08:25:13;;;;;;;0.60;0.60;;;;;;;21.14;100.00;100478.25;5052447;28;20024;-80
2023/07/10 08:27:41;;;;;;;0.70;0.47;;;;;;;22.71;100.00;100452.00;5035930;28;20043;-80
2023/07/10 08:30:08;;;;;;;1.70;0.70;;;;;;;23.85;100.00;100479.72;5035971;28;20475;-80
2023/07/10 08:32:33;;;;;;;0.73;0.45;;;;;;;23.06;100.00;100473.34;5019427;28;20040;-78
2023/07/10 08:34:59;;;;;;;0.40;0.40;;;;;;;22.63;100.00;100475.22;5019927;28;20029;-81
2023/07/10 08:37:37;;;;;;;0.77;0.70;;;;;;;23.98;100.00;100483.88;5038253;28;20036;-81
2023/07/10 08:40:18;;;;;;;0.52;0.52;;;;;;;24.40;100.00;100456.16;5021716;28;20040;-81
2023/07/10 08:42:46;;;;;;;0.40;0.40;;;;;;;23.90;100.00;100468.75;5036362;28;20033;-81
2023/07/10 08:45:16;;;;;;;0.40;0.40;;;;;;;23.05;100.00;100458.00;5036060;28;20025;-81
2023/07/10 08:47:46;;;;;;;0.65;0.57;;;;;;;22.47;100.00;100459.78;5052456;28;20032;-80
2023/07/10 08:50:22;;;;;;;0.40;0.40;;;;;;;22.13;100.00;100457.25;5019547;28;20029;-80
2023/07/10 08:53:20;;;;;;;1.17;0.80;;;;;;;21.74;100.00;100454.66;5019653;28;20033;-80
2023/07/10 08:56:22;;;;;;;5.70;1.38;;;;;;;22.89;100.00;100465.28;5052288;28;20202;-79
2023/07/10 08:58:48;;;;;;;3.97;1.63;;;;;;;23.50;100.00;100448.31;4997496;28;20399;-77
2023/07/10 09:01:30;;;;;;;4.03;1.70;;;;;;;23.87;100.00;100452.81;5018861;28;20040;-83
2023/07/10 09:03:58;;;;;;;3.22;1.40;;;;;;;24.11;100.00;100444.88;5019594;28;20494;-83
2023/07/10 09:06:40;;;;;;;6.72;2.30;;;;;;;24.15;100.00;100443.22;5019346;28;20387;-84
2023/07/10 09:09:31;;;;;;;4.25;2.15;;;;;;;24.14;100.00;100442.41;5035826;28;20527;-84
2023/07/10 09:12:08;;;;;;;5.03;2.38;;;;;;;25.30;100.00;100436.22;5018265;28;20093;-85
2023/07/10 09:14:51;;;;;;;5.38;2.08;;;;;;;24.56;100.00;100444.09;5019106;28;20064;-84
2023/07/10 09:17:22;;;;;;;6.35;2.08;;;;;;;23.94;100.00;100412.19;5035703;28;20464;-84
2023/07/10 09:19:53;;;;;;;9.32;2.03;;;;;;;23.41;100.00;100433.44;5035534;28;20037;-84
2023/07/10 09:22:20;;;;;;;5.55;1.67;;;;;;;23.20;100.00;100435.28;5019322;28;20135;-83
2023/07/10 09:24:46;;;;;;;10.55;2.67;;;;;;;22.89;100.00;100434.25;5052081;28;20033;-81
2023/07/10 09:27:13;;;;;;;6.22;2.00;;;;;;;22.73;100.00;100433.34;5051600;28;20495;-81
2023/07/10 09:29:40;;;;;;;5.35;1.73;;;;;;;22.15;100.00;100414.00;5052033;28;20065;-84
2023/07/10 09:32:23;;;;;;;4.97;2.03;;;;;;;21.78;100.00;100428.47;5052023;28;20554;-83
2023/07/10 09:34:59;;;;;;;4.80;2.05;;;;;;;21.23;100.00;100410.31;5021952;28;20037;-83
2023/07/10 09:37:51;;;;;;;7.50;2.08;;;;;;;21.16;100.00;100431.53;5035164;28;20083;-82
2023/07/10 09:40:39;;;;;;;5.57;1.92;;;;;;;21.34;100.00;100427.66;5035297;28;20079;-82
2023/07/10 09:43:15;;;;;;;7.18;2.10;;;;;;;21.34;100.00;100412.06;5068763;28;20040;-82
2023/07/10 09:45:47;;;;;;;10.38;2.83;;;;;;;21.47;100.00;100413.63;5019227;28;20029;-83
2023/07/10 09:48:35;;;;;;;4.63;2.20;;;;;;;21.03;100.00;100370.69;5018865;28;20131;-83
2023/07/10 09:51:04;;;;;;;3.85;1.83;;;;;;;21.22;100.00;100398.53;5018968;28;20064;-83
2023/07/10 09:53:47;;;;;;;2.97;1.77;;;;;;;21.20;100.00;100419.03;5018568;28;20477;-83
2023/07/10 09:56:35;;;;;;;6.40;1.98;;;;;;;21.19;100.00;100400.94;5019832;28;20083;-83
2023/07/10 09:59:26;;;;;;;7.05;2.40;;;;;;;21.09;100.00;100398.94;5019455;28;20028;-83
2023/07/10 10:01:53;;;;;;;4.40;1.98;;;;;;;21.37;100.00;100402.53;5038852;28;20059;-83
2023/07/10 10:04:28;;;;;;;7.30;2.00;;;;;;;21.66;100.00;100362.09;5022479;28;20041;-83
2023/07/10 10:07:01;;;;;;;3.97;1.80;;;;;;;22.39;100.00;100393.41;5039069;28;20044;-83
2023/07/10 10:09:39;;;;;;;;;;;;;;;;;;;;;
2023/07/10 10:12:23;;;;;;;4.45;1.50;;;;;;;23.20;100.00;100367.53;5069029;28;19966;-84
2023/07/10 10:14:54;;;;;;;5.05;2.42;;;;;;;22.86;100.00;100399.16;5022302;28;20036;-83
2023/07/10 10:17:50;;;;;;;7.20;2.17;;;;;;;22.65;100.00;100401.81;5022236;28;20052;-83
2023/07/10 10:20:47;;;;;;;;;;;;;;;22.70;100.00;100388.09;5054158;28;20059;-82
2023/07/10 10:23:41;;;;;;;3.80;1.73;;;;;;;23.04;100.00;100368.56;5070651;28;19915;-84
2023/07/10 10:26:26;;;;;;;30.83;27.73;;;;;;;23.35;100.00;100383.22;5021148;28;20040;-83
2023/07/10 10:29:20;;;;;;;7.43;5.50;;;;;;;23.33;100.00;100390.06;5037528;28;20124;-83
2023/07/10 10:31:54;;;;;;;8.20;4.82;;;;;;;24.16;100.00;100381.72;5035012;28;20094;-83
2023/07/10 10:34:55;;;;;;;6.55;4.03;;;;;;;24.27;100.00;100382.53;5057277;28;20017;-84
2023/07/10 10:37:41;;;;;;;7.53;5.65;;;;;;;24.40;99.13;100376.47;5026044;28;20025;-84
2023/07/10 10:40:19;;;;;;;6.25;3.83;;;;;;;27.48;92.99;100375.81;5056643;28;20040;-83
2023/07/10 10:43:08;;;;;;;5.25;3.60;;;;;;;30.34;77.47;100363.72;5038629;28;20036;-81
2023/07/10 10:45:41;;;;;;;7.10;3.47;;;;;;;30.28;74.82;100345.59;5034281;28;20052;-80
2023/07/10 10:48:12;;;;;;;8.73;5.30;;;;;;;30.04;73.35;100362.56;5021418;28;20041;-81
2023/07/10 10:50:46;;;;;;;5.32;3.40;;;;;;;28.04;76.21;100361.13;5038272;28;20468;-79
2023/07/10 10:53:33;;;;;;;4.32;2.25;;;;;;;26.96;72.60;100356.34;5038088;28;20064;-80
2023/07/10 10:56:22;;;;;;;6.30;2.33;;;;;;;26.59;71.63;100359.78;5038063;28;20032;-81
2023/07/10 10:59:12;;;;;;;5.53;2.30;;;;;;;26.19;68.84;100356.31;5037823;28;20029;-80
2023/07/10 11:01:42;;;;;;;4.38;2.10;;;;;;;25.57;68.41;100352.38;5037612;28;20029;-82
2023/07/10 11:04:21;;;;;;;5.22;2.28;;;;;;;25.03;71.48;100354.00;5021160;28;20029;-80
2023/07/10 11:06:58;;;;;;;4.45;2.13;;;;;;;24.42;70.68;100343.19;5037129;28;20025;-80
2023/07/10 11:09:33;;;;;;;3.42;1.67;;;;;;;23.67;70.60;100336.34;5054120;28;20040;-80
2023/07/10 11:12:00;;;;;;;4.97;2.03;;;;;;;22.89;73.18;100333.69;5019892;28;20040;-80
2023/07/10 11:14:26;;;;;;;4.82;3.00;;;;;;;22.54;74.70;100351.56;5021045;28;20480;-79
2023/07/10 11:16:52;;;;;;;7.45;2.72;;;;;;;22.16;75.65;100350.75;5021315;28;20032;-81
2023/07/10 11:19:25;;;;;;;5.07;2.28;;;;;;;21.89;76.54;100347.25;5053808;28;20021;-82
2023/07/10 11:21:52;;;;;;;4.57;2.33;;;;;;;21.73;78.41;100338.91;5037678;28;20466;-81
2023/07/10 11:24:28;;;;;;;4.47;2.30;;;;;;;22.01;80.48;100333.38;5037762;28;20032;-82
2023/07/10 11:27:06;;;;;;;5.20;3.00;;;;;;;22.21;79.70;100349.19;5020735;28;20033;-81
2023/07/10 11:29:43;;;;;;;11.27;4.47;;;;;;;22.12;85.16;100338.69;5037127;28;20029;-82
2023/07/10 11:32:17;;;;;;;9.52;6.00;;;;;;;22.38;87.27;100339.69;5020996;28;20537;-81
2023/07/10 11:34:50;;;;;;;9.07;5.65;;;;;;;22.23;86.55;100336.88;5053502;28;20421;-81
2023/07/10 11:37:49;;;;;;;9.57;5.25;;;;;;;21.55;90.93;100339.28;5034857;28;20037;-81